Hovedside
METAR-TAF:

METAR-TAF

Lufthavner :

Kittilä, Finland

Kittilä lufthavn

breddegrad: 67-42N, lengdegrad: 024-51E, høyde over havet: 196 m

Gjeldene værobservasjon

Denne rapporten ble laget for 38 minutter siden, klokken 07:50 UTC
Vind 3 kt fra Nordvest
Temperatur -24°C
Luftfuktighet 83%
Trykk 1015 hPa
Sikt 10 km eller mer
Brutte skyer i en høyde av 1200 ft
lett snø

METAR: EFKT 220750Z 31003KT 9999 -SN BKN012 M24/M26 Q1015

Tid: 10:28 (08:28 UTC)

Varsel

Denne rapporten ble laget for 1 time og 12 minutter siden, klokken 07:16 UTC
Varsel gyldig fra 22. klokken 07 UTC til 22. klokken 15 UTC
Vind 2 kt fra Vest
Sikt: 8000 m
Spredte skyer i en høyde av 4000 ft
lett snø
Midlertidig
fra 22. klokken 07 UTC til 22. klokken 09 UTC
Sikt: 2000 m
Brutte skyer i en høyde av 1200 ft

TAF: EFKT 220716Z 2207/2215 28002KT 8000 -SN SCT040 TEMPO 2207/2209 2000 BKN012

Værobservasjoner og værvarsel for over 4000 flyplasser (METAR- og TAF-rapporter).

Tilgjengelige stasjoner er representert av de røde og gule prikkene på kartet.

Hold musepekeren over prikken for å se navnet på stasjonen.

Klikk så for å se værobservasjoner og -varsler.

For å forandre kartet kan du klikke på den grønne knappen med svart kryss for å zoome inn, på den grønne knappen med strek for å zoome ut, eller på de grønne pilene for å se tilstøtende kart.


METAR-TAF: